KHLR/HLR METAR and TAF weather

Enter ICAO airport designator
Station Type Date Time Source
KHLR METAR 2023/12/02 04:55 UTC NOAA

KHLR 020455Z AUTO 00000KT 10SM CLR 09/04 A2998 RMK AO2 SLP156 T00860042


Station Type Date Time Source
KHLR Decoded METAR 2023/12/02 04:55 UTC NOAA

Fort Hood, Hood AAF Ft Hood, TX, United States (KHLR) 31-08N 097-42W
Dec 01, 2023 - 11:55 PM EST / 2023.12.02 0455 UTC
Wind: Calm:0
Visibility: 10 mile(s):0
Sky conditions: clear
Temperature: 47.5 F (8.6 C)
Dew Point: 39.6 F (4.2 C)
Relative Humidity: 73%
Pressure (altimeter): 29.98 in. Hg (1015 hPa)
ob: KHLR 020455Z AUTO 00000KT 10SM CLR 09/04 A2998 RMK AO2 SLP156 T00860042
cycle: 5

Station Type Date Time Source
KHLR TAF UTC NOAA

Error!

Example: see airport list